sensor_id;sensor_type;location;lat;lon;timestamp;pressure;altitude;pressure_sealevel;temperature
16956;BMP180;8594;52.052;8.354;2024-01-27T00:01:15;102204.00;;;8.20
16956;BMP180;8594;52.052;8.354;2024-01-27T00:03:42;102211.00;;;8.30
16956;BMP180;8594;52.052;8.354;2024-01-27T00:06:10;102209.00;;;8.10
16956;BMP180;8594;52.052;8.354;2024-01-27T00:08:37;102213.00;;;7.90
16956;BMP180;8594;52.052;8.354;2024-01-27T00:11:04;102206.00;;;7.90
16956;BMP180;8594;52.052;8.354;2024-01-27T00:13:30;102213.00;;;7.80
16956;BMP180;8594;52.052;8.354;2024-01-27T00:15:57;102220.00;;;7.50
16956;BMP180;8594;52.052;8.354;2024-01-27T00:18:24;102221.00;;;7.40
16956;BMP180;8594;52.052;8.354;2024-01-27T00:20:50;102222.00;;;7.80
16956;BMP180;8594;52.052;8.354;2024-01-27T00:23:19;102228.00;;;7.80
16956;BMP180;8594;52.052;8.354;2024-01-27T00:25:45;102229.00;;;7.60
16956;BMP180;8594;52.052;8.354;2024-01-27T00:28:12;102219.00;;;7.70
16956;BMP180;8594;52.052;8.354;2024-01-27T00:30:39;102232.00;;;8.00
16956;BMP180;8594;52.052;8.354;2024-01-27T00:33:05;102228.00;;;7.60
16956;BMP180;8594;52.052;8.354;2024-01-27T00:35:32;102234.00;;;7.70
16956;BMP180;8594;52.052;8.354;2024-01-27T00:37:59;102228.00;;;7.60
16956;BMP180;8594;52.052;8.354;2024-01-27T00:40:27;102231.00;;;7.70
16956;BMP180;8594;52.052;8.354;2024-01-27T00:42:54;102234.00;;;7.60
16956;BMP180;8594;52.052;8.354;2024-01-27T00:45:21;102232.00;;;7.70
16956;BMP180;8594;52.052;8.354;2024-01-27T00:47:49;102230.00;;;7.60
16956;BMP180;8594;52.052;8.354;2024-01-27T00:50:16;102243.00;;;7.90
16956;BMP180;8594;52.052;8.354;2024-01-27T00:52:43;102245.00;;;7.50
16956;BMP180;8594;52.052;8.354;2024-01-27T00:55:09;102252.00;;;7.00
16956;BMP180;8594;52.052;8.354;2024-01-27T00:57:38;102251.00;;;7.20
16956;BMP180;8594;52.052;8.354;2024-01-27T01:00:06;102245.00;;;7.10
16956;BMP180;8594;52.052;8.354;2024-01-27T01:02:34;102253.00;;;7.40
16956;BMP180;8594;52.052;8.354;2024-01-27T01:05:01;102264.00;;;7.90
16956;BMP180;8594;52.052;8.354;2024-01-27T01:07:29;102268.00;;;7.90
16956;BMP180;8594;52.052;8.354;2024-01-27T01:09:56;102263.00;;;7.70
16956;BMP180;8594;52.052;8.354;2024-01-27T01:12:23;102280.00;;;7.50
16956;BMP180;8594;52.052;8.354;2024-01-27T01:14:52;102275.00;;;7.50
16956;BMP180;8594;52.052;8.354;2024-01-27T01:17:19;102272.00;;;7.30
16956;BMP180;8594;52.052;8.354;2024-01-27T01:19:46;102276.00;;;7.40
16956;BMP180;8594;52.052;8.354;2024-01-27T01:22:13;102273.00;;;7.40
16956;BMP180;8594;52.052;8.354;2024-01-27T01:24:39;102275.00;;;7.70
16956;BMP180;8594;52.052;8.354;2024-01-27T01:27:06;102278.00;;;7.60
16956;BMP180;8594;52.052;8.354;2024-01-27T01:29:33;102275.00;;;7.60
16956;BMP180;8594;52.052;8.354;2024-01-27T01:32:02;102282.00;;;8.00
16956;BMP180;8594;52.052;8.354;2024-01-27T01:34:29;102283.00;;;8.00
16956;BMP180;8594;52.052;8.354;2024-01-27T01:36:55;102280.00;;;7.30
16956;BMP180;8594;52.052;8.354;2024-01-27T01:39:23;102276.00;;;7.10
16956;BMP180;8594;52.052;8.354;2024-01-27T01:41:50;102278.00;;;7.20
16956;BMP180;8594;52.052;8.354;2024-01-27T01:44:16;102278.00;;;7.10
16956;BMP180;8594;52.052;8.354;2024-01-27T01:46:43;102280.00;;;7.00
16956;BMP180;8594;52.052;8.354;2024-01-27T01:49:11;102269.00;;;7.30
16956;BMP180;8594;52.052;8.354;2024-01-27T01:51:38;102273.00;;;7.20
16956;BMP180;8594;52.052;8.354;2024-01-27T01:54:06;102267.00;;;7.30
16956;BMP180;8594;52.052;8.354;2024-01-27T01:56:33;102270.00;;;7.30
16956;BMP180;8594;52.052;8.354;2024-01-27T01:59:00;102267.00;;;6.90
16956;BMP180;8594;52.052;8.354;2024-01-27T02:01:27;102263.00;;;7.00
16956;BMP180;8594;52.052;8.354;2024-01-27T02:03:54;102258.00;;;7.00
16956;BMP180;8594;52.052;8.354;2024-01-27T02:06:22;102273.00;;;7.10
16956;BMP180;8594;52.052;8.354;2024-01-27T02:08:48;102265.00;;;7.20
16956;BMP180;8594;52.052;8.354;2024-01-27T02:11:15;102254.00;;;6.90
16956;BMP180;8594;52.052;8.354;2024-01-27T02:13:42;102265.00;;;7.00
16956;BMP180;8594;52.052;8.354;2024-01-27T02:16:09;102256.00;;;7.10
16956;BMP180;8594;52.052;8.354;2024-01-27T02:18:35;102258.00;;;7.20
16956;BMP180;8594;52.052;8.354;2024-01-27T02:21:02;102265.00;;;7.00
16956;BMP180;8594;52.052;8.354;2024-01-27T02:23:30;102262.00;;;7.10
16956;BMP180;8594;52.052;8.354;2024-01-27T02:25:58;102263.00;;;7.30
16956;BMP180;8594;52.052;8.354;2024-01-27T02:28:25;102268.00;;;6.90
16956;BMP180;8594;52.052;8.354;2024-01-27T02:30:52;102271.00;;;6.50
16956;BMP180;8594;52.052;8.354;2024-01-27T02:33:19;102281.00;;;6.30
16956;BMP180;8594;52.052;8.354;2024-01-27T02:35:46;102282.00;;;6.10
16956;BMP180;8594;52.052;8.354;2024-01-27T02:38:13;102283.00;;;6.70
16956;BMP180;8594;52.052;8.354;2024-01-27T02:40:40;102277.00;;;7.20
16956;BMP180;8594;52.052;8.354;2024-01-27T02:43:08;102283.00;;;6.60
16956;BMP180;8594;52.052;8.354;2024-01-27T02:45:35;102277.00;;;6.60
16956;BMP180;8594;52.052;8.354;2024-01-27T02:48:02;102275.00;;;6.70
16956;BMP180;8594;52.052;8.354;2024-01-27T02:50:29;102273.00;;;6.40
16956;BMP180;8594;52.052;8.354;2024-01-27T02:52:55;102268.00;;;6.30
16956;BMP180;8594;52.052;8.354;2024-01-27T02:55:22;102276.00;;;6.60
16956;BMP180;8594;52.052;8.354;2024-01-27T02:57:49;102272.00;;;6.40
16956;BMP180;8594;52.052;8.354;2024-01-27T03:00:17;102277.00;;;6.00
16956;BMP180;8594;52.052;8.354;2024-01-27T03:02:44;102278.00;;;5.90
16956;BMP180;8594;52.052;8.354;2024-01-27T03:05:11;102281.00;;;6.10
16956;BMP180;8594;52.052;8.354;2024-01-27T03:07:39;102280.00;;;6.10
16956;BMP180;8594;52.052;8.354;2024-01-27T03:10:06;102290.00;;;6.60
16956;BMP180;8594;52.052;8.354;2024-01-27T03:12:33;102288.00;;;6.80
16956;BMP180;8594;52.052;8.354;2024-01-27T03:15:00;102295.00;;;7.20
16956;BMP180;8594;52.052;8.354;2024-01-27T03:17:28;102286.00;;;7.20
16956;BMP180;8594;52.052;8.354;2024-01-27T03:19:55;102294.00;;;6.50
16956;BMP180;8594;52.052;8.354;2024-01-27T03:22:21;102298.00;;;6.30
16956;BMP180;8594;52.052;8.354;2024-01-27T03:24:48;102291.00;;;6.20
16956;BMP180;8594;52.052;8.354;2024-01-27T03:27:17;102285.00;;;6.10
16956;BMP180;8594;52.052;8.354;2024-01-27T03:29:43;102285.00;;;6.00
16956;BMP180;8594;52.052;8.354;2024-01-27T03:32:10;102288.00;;;6.10
16956;BMP180;8594;52.052;8.354;2024-01-27T03:34:43;102283.00;;;5.90
16956;BMP180;8594;52.052;8.354;2024-01-27T03:37:11;102290.00;;;6.20
16956;BMP180;8594;52.052;8.354;2024-01-27T03:39:38;102284.00;;;6.50
16956;BMP180;8594;52.052;8.354;2024-01-27T03:42:07;102287.00;;;6.60
16956;BMP180;8594;52.052;8.354;2024-01-27T03:44:33;102301.00;;;6.40
16956;BMP180;8594;52.052;8.354;2024-01-27T03:47:00;102303.00;;;6.30
16956;BMP180;8594;52.052;8.354;2024-01-27T03:49:27;102298.00;;;6.30
16956;BMP180;8594;52.052;8.354;2024-01-27T03:51:55;102299.00;;;6.40
16956;BMP180;8594;52.052;8.354;2024-01-27T03:54:22;102291.00;;;6.20
16956;BMP180;8594;52.052;8.354;2024-01-27T03:56:48;102284.00;;;6.30
16956;BMP180;8594;52.052;8.354;2024-01-27T03:59:15;102303.00;;;6.20
16956;BMP180;8594;52.052;8.354;2024-01-27T04:01:43;102289.00;;;6.40
16956;BMP180;8594;52.052;8.354;2024-01-27T04:04:10;102301.00;;;6.30
16956;BMP180;8594;52.052;8.354;2024-01-27T04:06:37;102309.00;;;6.10
16956;BMP180;8594;52.052;8.354;2024-01-27T04:09:06;102299.00;;;5.80
16956;BMP180;8594;52.052;8.354;2024-01-27T04:11:35;102306.00;;;5.90
16956;BMP180;8594;52.052;8.354;2024-01-27T04:14:03;102305.00;;;5.90
16956;BMP180;8594;52.052;8.354;2024-01-27T04:16:30;102309.00;;;5.60
16956;BMP180;8594;52.052;8.354;2024-01-27T04:18:57;102301.00;;;6.20
16956;BMP180;8594;52.052;8.354;2024-01-27T04:21:23;102312.00;;;6.70
16956;BMP180;8594;52.052;8.354;2024-01-27T04:23:50;102315.00;;;6.10
16956;BMP180;8594;52.052;8.354;2024-01-27T04:26:18;102302.00;;;6.10
16956;BMP180;8594;52.052;8.354;2024-01-27T04:28:45;102307.00;;;6.40
16956;BMP180;8594;52.052;8.354;2024-01-27T04:31:12;102313.00;;;5.80
16956;BMP180;8594;52.052;8.354;2024-01-27T04:33:38;102314.00;;;5.60
16956;BMP180;8594;52.052;8.354;2024-01-27T04:36:06;102309.00;;;5.40
16956;BMP180;8594;52.052;8.354;2024-01-27T04:38:34;102318.00;;;5.10
16956;BMP180;8594;52.052;8.354;2024-01-27T04:41:01;102315.00;;;5.50
16956;BMP180;8594;52.052;8.354;2024-01-27T04:43:29;102322.00;;;5.30
16956;BMP180;8594;52.052;8.354;2024-01-27T04:45:56;102327.00;;;5.50
16956;BMP180;8594;52.052;8.354;2024-01-27T04:48:22;102320.00;;;5.30
16956;BMP180;8594;52.052;8.354;2024-01-27T04:50:49;102309.00;;;5.10
16956;BMP180;8594;52.052;8.354;2024-01-27T04:53:16;102323.00;;;5.10
16956;BMP180;8594;52.052;8.354;2024-01-27T04:55:43;102310.00;;;5.20
16956;BMP180;8594;52.052;8.354;2024-01-27T04:58:09;102313.00;;;5.10
16956;BMP180;8594;52.052;8.354;2024-01-27T05:00:37;102321.00;;;5.30
16956;BMP180;8594;52.052;8.354;2024-01-27T05:03:04;102321.00;;;5.30
16956;BMP180;8594;52.052;8.354;2024-01-27T05:05:33;102324.00;;;5.10
16956;BMP180;8594;52.052;8.354;2024-01-27T05:07:59;102322.00;;;5.70
16956;BMP180;8594;52.052;8.354;2024-01-27T05:10:26;102329.00;;;5.00
16956;BMP180;8594;52.052;8.354;2024-01-27T05:12:53;102331.00;;;5.10
16956;BMP180;8594;52.052;8.354;2024-01-27T05:15:21;102324.00;;;5.40
16956;BMP180;8594;52.052;8.354;2024-01-27T05:17:49;102326.00;;;5.40
16956;BMP180;8594;52.052;8.354;2024-01-27T05:20:16;102324.00;;;5.60
16956;BMP180;8594;52.052;8.354;2024-01-27T05:22:43;102316.00;;;5.40
16956;BMP180;8594;52.052;8.354;2024-01-27T05:25:10;102328.00;;;5.60
16956;BMP180;8594;52.052;8.354;2024-01-27T05:27:37;102322.00;;;5.30
16956;BMP180;8594;52.052;8.354;2024-01-27T05:30:06;102309.00;;;5.20
16956;BMP180;8594;52.052;8.354;2024-01-27T05:32:33;102323.00;;;5.20
16956;BMP180;8594;52.052;8.354;2024-01-27T05:35:01;102309.00;;;5.20
16956;BMP180;8594;52.052;8.354;2024-01-27T05:37:28;102311.00;;;5.20
16956;BMP180;8594;52.052;8.354;2024-01-27T05:39:55;102305.00;;;5.30
16956;BMP180;8594;52.052;8.354;2024-01-27T05:42:22;102312.00;;;5.80
16956;BMP180;8594;52.052;8.354;2024-01-27T05:44:49;102329.00;;;6.00
16956;BMP180;8594;52.052;8.354;2024-01-27T05:47:15;102335.00;;;5.90
16956;BMP180;8594;52.052;8.354;2024-01-27T05:49:42;102335.00;;;6.00
16956;BMP180;8594;52.052;8.354;2024-01-27T05:52:10;102335.00;;;6.10
16956;BMP180;8594;52.052;8.354;2024-01-27T05:54:40;102325.00;;;5.10
16956;BMP180;8594;52.052;8.354;2024-01-27T05:57:07;102323.00;;;5.50
16956;BMP180;8594;52.052;8.354;2024-01-27T05:59:34;102332.00;;;5.30
16956;BMP180;8594;52.052;8.354;2024-01-27T06:02:00;102335.00;;;5.10
16956;BMP180;8594;52.052;8.354;2024-01-27T06:04:28;102332.00;;;5.30
16956;BMP180;8594;52.052;8.354;2024-01-27T06:06:56;102332.00;;;5.00
16956;BMP180;8594;52.052;8.354;2024-01-27T06:09:24;102338.00;;;5.30
16956;BMP180;8594;52.052;8.354;2024-01-27T06:11:51;102342.00;;;5.00
16956;BMP180;8594;52.052;8.354;2024-01-27T06:14:18;102342.00;;;4.80
16956;BMP180;8594;52.052;8.354;2024-01-27T06:16:44;102350.00;;;4.70
16956;BMP180;8594;52.052;8.354;2024-01-27T06:19:11;102346.00;;;5.20
16956;BMP180;8594;52.052;8.354;2024-01-27T06:21:38;102360.00;;;5.10
16956;BMP180;8594;52.052;8.354;2024-01-27T06:24:05;102352.00;;;5.30
16956;BMP180;8594;52.052;8.354;2024-01-27T06:26:33;102365.00;;;5.00
16956;BMP180;8594;52.052;8.354;2024-01-27T06:29:00;102366.00;;;5.40
16956;BMP180;8594;52.052;8.354;2024-01-27T06:31:28;102372.00;;;5.30
16956;BMP180;8594;52.052;8.354;2024-01-27T06:33:55;102397.00;;;5.50
16956;BMP180;8594;52.052;8.354;2024-01-27T06:36:22;102386.00;;;5.20
16956;BMP180;8594;52.052;8.354;2024-01-27T06:38:50;102384.00;;;5.70
16956;BMP180;8594;52.052;8.354;2024-01-27T06:41:17;102396.00;;;5.50
16956;BMP180;8594;52.052;8.354;2024-01-27T06:43:45;102397.00;;;5.30
16956;BMP180;8594;52.052;8.354;2024-01-27T06:46:11;102397.00;;;5.30
16956;BMP180;8594;52.052;8.354;2024-01-27T06:48:38;102405.00;;;5.70
16956;BMP180;8594;52.052;8.354;2024-01-27T06:51:06;102403.00;;;5.50
16956;BMP180;8594;52.052;8.354;2024-01-27T06:53:32;102401.00;;;5.70
16956;BMP180;8594;52.052;8.354;2024-01-27T06:55:59;102399.00;;;5.60
16956;BMP180;8594;52.052;8.354;2024-01-27T06:58:26;102405.00;;;5.70
16956;BMP180;8594;52.052;8.354;2024-01-27T07:00:54;102410.00;;;5.60
16956;BMP180;8594;52.052;8.354;2024-01-27T07:03:20;102412.00;;;5.70
16956;BMP180;8594;52.052;8.354;2024-01-27T07:05:48;102419.00;;;5.70
16956;BMP180;8594;52.052;8.354;2024-01-27T07:08:14;102413.00;;;5.70
16956;BMP180;8594;52.052;8.354;2024-01-27T07:10:42;102420.00;;;5.70
16956;BMP180;8594;52.052;8.354;2024-01-27T07:13:08;102419.00;;;5.50
16956;BMP180;8594;52.052;8.354;2024-01-27T07:15:35;102431.00;;;5.60
16956;BMP180;8594;52.052;8.354;2024-01-27T07:18:05;102428.00;;;5.60
16956;BMP180;8594;52.052;8.354;2024-01-27T07:20:33;102433.00;;;5.40
16956;BMP180;8594;52.052;8.354;2024-01-27T07:23:00;102441.00;;;5.60
16956;BMP180;8594;52.052;8.354;2024-01-27T07:25:26;102437.00;;;5.70
16956;BMP180;8594;52.052;8.354;2024-01-27T07:27:53;102438.00;;;5.70
16956;BMP180;8594;52.052;8.354;2024-01-27T07:30:20;102448.00;;;5.90
16956;BMP180;8594;52.052;8.354;2024-01-27T07:32:47;102462.00;;;6.00
16956;BMP180;8594;52.052;8.354;2024-01-27T07:35:15;102451.00;;;5.80
16956;BMP180;8594;52.052;8.354;2024-01-27T07:37:42;102447.00;;;5.90
16956;BMP180;8594;52.052;8.354;2024-01-27T07:40:10;102457.00;;;6.20
16956;BMP180;8594;52.052;8.354;2024-01-27T07:42:37;102451.00;;;6.40
16956;BMP180;8594;52.052;8.354;2024-01-27T07:45:05;102449.00;;;5.90
16956;BMP180;8594;52.052;8.354;2024-01-27T07:47:32;102432.00;;;6.00
16956;BMP180;8594;52.052;8.354;2024-01-27T07:49:59;102444.00;;;5.80
16956;BMP180;8594;52.052;8.354;2024-01-27T07:52:27;102432.00;;;5.90
16956;BMP180;8594;52.052;8.354;2024-01-27T07:54:54;102436.00;;;6.60
16956;BMP180;8594;52.052;8.354;2024-01-27T07:57:22;102433.00;;;6.30
16956;BMP180;8594;52.052;8.354;2024-01-27T07:59:48;102438.00;;;6.40
16956;BMP180;8594;52.052;8.354;2024-01-27T08:02:15;102441.00;;;6.90
16956;BMP180;8594;52.052;8.354;2024-01-27T08:04:42;102443.00;;;6.80
16956;BMP180;8594;52.052;8.354;2024-01-27T08:07:08;102443.00;;;7.70
16956;BMP180;8594;52.052;8.354;2024-01-27T08:09:37;102438.00;;;7.70
16956;BMP180;8594;52.052;8.354;2024-01-27T08:12:06;102441.00;;;7.70
16956;BMP180;8594;52.052;8.354;2024-01-27T08:14:33;102467.00;;;7.90
16956;BMP180;8594;52.052;8.354;2024-01-27T08:17:01;102456.00;;;8.10
16956;BMP180;8594;52.052;8.354;2024-01-27T08:19:28;102473.00;;;8.80
16956;BMP180;8594;52.052;8.354;2024-01-27T08:21:55;102467.00;;;8.50
16956;BMP180;8594;52.052;8.354;2024-01-27T08:24:22;102460.00;;;9.30
16956;BMP180;8594;52.052;8.354;2024-01-27T08:26:50;102459.00;;;10.00
16956;BMP180;8594;52.052;8.354;2024-01-27T08:29:17;102458.00;;;10.00
16956;BMP180;8594;52.052;8.354;2024-01-27T08:31:44;102466.00;;;9.90
16956;BMP180;8594;52.052;8.354;2024-01-27T08:34:11;102452.00;;;10.40
16956;BMP180;8594;52.052;8.354;2024-01-27T08:36:38;102454.00;;;10.60
16956;BMP180;8594;52.052;8.354;2024-01-27T08:39:05;102457.00;;;10.90
16956;BMP180;8594;52.052;8.354;2024-01-27T08:41:34;102466.00;;;11.50
16956;BMP180;8594;52.052;8.354;2024-01-27T08:44:02;102470.00;;;11.40
16956;BMP180;8594;52.052;8.354;2024-01-27T08:46:29;102470.00;;;11.10
16956;BMP180;8594;52.052;8.354;2024-01-27T08:48:56;102474.00;;;11.20
16956;BMP180;8594;52.052;8.354;2024-01-27T08:51:22;102470.00;;;11.60
16956;BMP180;8594;52.052;8.354;2024-01-27T08:53:49;102482.00;;;11.30
16956;BMP180;8594;52.052;8.354;2024-01-27T08:56:17;102479.00;;;11.00
16956;BMP180;8594;52.052;8.354;2024-01-27T08:58:44;102466.00;;;11.60
16956;BMP180;8594;52.052;8.354;2024-01-27T09:01:16;102472.00;;;12.30
16956;BMP180;8594;52.052;8.354;2024-01-27T09:03:43;102481.00;;;11.90
16956;BMP180;8594;52.052;8.354;2024-01-27T09:06:10;102479.00;;;12.70
16956;BMP180;8594;52.052;8.354;2024-01-27T09:08:37;102485.00;;;12.50
16956;BMP180;8594;52.052;8.354;2024-01-27T09:11:04;102490.00;;;12.70
16956;BMP180;8594;52.052;8.354;2024-01-27T09:13:31;102492.00;;;11.80
16956;BMP180;8594;52.052;8.354;2024-01-27T09:15:59;102481.00;;;12.00
16956;BMP180;8594;52.052;8.354;2024-01-27T09:18:27;102486.00;;;12.20
16956;BMP180;8594;52.052;8.354;2024-01-27T09:20:54;102494.00;;;12.20
16956;BMP180;8594;52.052;8.354;2024-01-27T09:23:21;102491.00;;;11.80
16956;BMP180;8594;52.052;8.354;2024-01-27T09:25:47;102502.00;;;12.70
16956;BMP180;8594;52.052;8.354;2024-01-27T09:28:14;102509.00;;;12.50
16956;BMP180;8594;52.052;8.354;2024-01-27T09:30:41;102511.00;;;12.70
16956;BMP180;8594;52.052;8.354;2024-01-27T09:33:08;102512.00;;;12.60
16956;BMP180;8594;52.052;8.354;2024-01-27T09:35:36;102507.00;;;12.40
16956;BMP180;8594;52.052;8.354;2024-01-27T09:38:03;102510.00;;;12.10
16956;BMP180;8594;52.052;8.354;2024-01-27T09:40:30;102513.00;;;12.90
16956;BMP180;8594;52.052;8.354;2024-01-27T09:42:59;102504.00;;;12.70
16956;BMP180;8594;52.052;8.354;2024-01-27T09:45:26;102508.00;;;12.40
16956;BMP180;8594;52.052;8.354;2024-01-27T09:47:56;102517.00;;;12.60
16956;BMP180;8594;52.052;8.354;2024-01-27T09:50:23;102517.00;;;12.80
16956;BMP180;8594;52.052;8.354;2024-01-27T09:52:51;102522.00;;;13.30
16956;BMP180;8594;52.052;8.354;2024-01-27T09:55:18;102525.00;;;12.60
16956;BMP180;8594;52.052;8.354;2024-01-27T09:57:46;102527.00;;;12.20
16956;BMP180;8594;52.052;8.354;2024-01-27T10:00:14;102536.00;;;13.30
16956;BMP180;8594;52.052;8.354;2024-01-27T10:02:44;102539.00;;;13.20
16956;BMP180;8594;52.052;8.354;2024-01-27T10:05:13;102548.00;;;13.20
16956;BMP180;8594;52.052;8.354;2024-01-27T10:07:40;102539.00;;;13.90
16956;BMP180;8594;52.052;8.354;2024-01-27T10:10:09;102550.00;;;14.20
16956;BMP180;8594;52.052;8.354;2024-01-27T10:12:41;102546.00;;;14.00
16956;BMP180;8594;52.052;8.354;2024-01-27T10:15:19;102546.00;;;13.50
16956;BMP180;8594;52.052;8.354;2024-01-27T10:17:46;102548.00;;;14.30
16956;BMP180;8594;52.052;8.354;2024-01-27T10:20:13;102557.00;;;14.00
16956;BMP180;8594;52.052;8.354;2024-01-27T10:22:42;102554.00;;;13.40
16956;BMP180;8594;52.052;8.354;2024-01-27T10:25:12;102546.00;;;14.00
16956;BMP180;8594;52.052;8.354;2024-01-27T10:27:39;102541.00;;;13.40
16956;BMP180;8594;52.052;8.354;2024-01-27T10:30:16;102534.00;;;13.90
16956;BMP180;8594;52.052;8.354;2024-01-27T10:32:54;102538.00;;;13.90
16956;BMP180;8594;52.052;8.354;2024-01-27T10:35:21;102530.00;;;13.60
16956;BMP180;8594;52.052;8.354;2024-01-27T10:37:52;102531.00;;;14.30
16956;BMP180;8594;52.052;8.354;2024-01-27T10:40:22;102541.00;;;14.80
16956;BMP180;8594;52.052;8.354;2024-01-27T10:43:01;102524.00;;;14.80
16956;BMP180;8594;52.052;8.354;2024-01-27T10:45:34;102527.00;;;14.70
16956;BMP180;8594;52.052;8.354;2024-01-27T10:48:03;102534.00;;;14.50
16956;BMP180;8594;52.052;8.354;2024-01-27T10:50:35;102538.00;;;14.90
16956;BMP180;8594;52.052;8.354;2024-01-27T10:53:03;102538.00;;;14.80
16956;BMP180;8594;52.052;8.354;2024-01-27T10:55:33;102537.00;;;14.40
16956;BMP180;8594;52.052;8.354;2024-01-27T10:58:02;102525.00;;;14.60
16956;BMP180;8594;52.052;8.354;2024-01-27T11:00:30;102525.00;;;14.50
16956;BMP180;8594;52.052;8.354;2024-01-27T11:02:59;102522.00;;;14.60
16956;BMP180;8594;52.052;8.354;2024-01-27T11:05:28;102517.00;;;14.40
16956;BMP180;8594;52.052;8.354;2024-01-27T11:07:56;102512.00;;;13.80
16956;BMP180;8594;52.052;8.354;2024-01-27T11:10:25;102517.00;;;14.10
16956;BMP180;8594;52.052;8.354;2024-01-27T11:12:53;102514.00;;;13.60
16956;BMP180;8594;52.052;8.354;2024-01-27T11:15:21;102509.00;;;14.50
16956;BMP180;8594;52.052;8.354;2024-01-27T11:17:48;102509.00;;;14.40
16956;BMP180;8594;52.052;8.354;2024-01-27T11:20:15;102501.00;;;14.10
16956;BMP180;8594;52.052;8.354;2024-01-27T11:22:42;102507.00;;;13.60
16956;BMP180;8594;52.052;8.354;2024-01-27T11:25:17;102502.00;;;14.10
16956;BMP180;8594;52.052;8.354;2024-01-27T11:27:46;102507.00;;;14.10
16956;BMP180;8594;52.052;8.354;2024-01-27T11:30:27;102509.00;;;13.50
16956;BMP180;8594;52.052;8.354;2024-01-27T11:32:55;102509.00;;;14.10
16956;BMP180;8594;52.052;8.354;2024-01-27T11:35:22;102495.00;;;13.90
16956;BMP180;8594;52.052;8.354;2024-01-27T11:37:50;102517.00;;;13.70
16956;BMP180;8594;52.052;8.354;2024-01-27T11:40:16;102515.00;;;13.40
16956;BMP180;8594;52.052;8.354;2024-01-27T11:42:43;102515.00;;;14.30
16956;BMP180;8594;52.052;8.354;2024-01-27T11:45:10;102515.00;;;14.50
16956;BMP180;8594;52.052;8.354;2024-01-27T11:47:38;102524.00;;;14.60
16956;BMP180;8594;52.052;8.354;2024-01-27T11:50:05;102524.00;;;14.10
16956;BMP180;8594;52.052;8.354;2024-01-27T11:52:33;102527.00;;;14.30
16956;BMP180;8594;52.052;8.354;2024-01-27T11:55:00;102515.00;;;14.10
16956;BMP180;8594;52.052;8.354;2024-01-27T11:57:27;102519.00;;;14.00
16956;BMP180;8594;52.052;8.354;2024-01-27T11:59:55;102520.00;;;14.40
16956;BMP180;8594;52.052;8.354;2024-01-27T12:02:22;102517.00;;;13.20
16956;BMP180;8594;52.052;8.354;2024-01-27T12:04:51;102521.00;;;13.70
16956;BMP180;8594;52.052;8.354;2024-01-27T12:07:19;102521.00;;;13.80
16956;BMP180;8594;52.052;8.354;2024-01-27T12:09:48;102519.00;;;13.60
16956;BMP180;8594;52.052;8.354;2024-01-27T12:12:15;102518.00;;;13.60
16956;BMP180;8594;52.052;8.354;2024-01-27T12:14:45;102528.00;;;13.90
16956;BMP180;8594;52.052;8.354;2024-01-27T12:17:13;102521.00;;;13.70
16956;BMP180;8594;52.052;8.354;2024-01-27T12:19:46;102526.00;;;13.70
16956;BMP180;8594;52.052;8.354;2024-01-27T12:22:22;102536.00;;;13.20
16956;BMP180;8594;52.052;8.354;2024-01-27T12:24:51;102533.00;;;13.40
16956;BMP180;8594;52.052;8.354;2024-01-27T12:27:18;102523.00;;;13.90
16956;BMP180;8594;52.052;8.354;2024-01-27T12:29:47;102529.00;;;14.10
16956;BMP180;8594;52.052;8.354;2024-01-27T12:32:14;102524.00;;;15.00
16956;BMP180;8594;52.052;8.354;2024-01-27T12:34:42;102533.00;;;13.60
16956;BMP180;8594;52.052;8.354;2024-01-27T12:37:12;102526.00;;;13.30
16956;BMP180;8594;52.052;8.354;2024-01-27T12:39:42;102528.00;;;13.30
16956;BMP180;8594;52.052;8.354;2024-01-27T12:42:10;102534.00;;;14.10
16956;BMP180;8594;52.052;8.354;2024-01-27T12:44:36;102526.00;;;14.50
16956;BMP180;8594;52.052;8.354;2024-01-27T12:47:04;102520.00;;;13.80
16956;BMP180;8594;52.052;8.354;2024-01-27T12:49:31;102521.00;;;14.50
16956;BMP180;8594;52.052;8.354;2024-01-27T12:51:58;102522.00;;;13.80
16956;BMP180;8594;52.052;8.354;2024-01-27T12:54:25;102524.00;;;13.70
16956;BMP180;8594;52.052;8.354;2024-01-27T12:56:53;102524.00;;;14.00
16956;BMP180;8594;52.052;8.354;2024-01-27T12:59:20;102529.00;;;13.30
16956;BMP180;8594;52.052;8.354;2024-01-27T13:01:46;102527.00;;;12.90
16956;BMP180;8594;52.052;8.354;2024-01-27T13:04:13;102522.00;;;13.50
16956;BMP180;8594;52.052;8.354;2024-01-27T13:06:40;102522.00;;;12.80
16956;BMP180;8594;52.052;8.354;2024-01-27T13:09:08;102521.00;;;12.60
16956;BMP180;8594;52.052;8.354;2024-01-27T13:11:37;102518.00;;;13.50
16956;BMP180;8594;52.052;8.354;2024-01-27T13:14:05;102520.00;;;13.40
16956;BMP180;8594;52.052;8.354;2024-01-27T13:16:34;102521.00;;;13.10
16956;BMP180;8594;52.052;8.354;2024-01-27T13:19:02;102520.00;;;13.40
16956;BMP180;8594;52.052;8.354;2024-01-27T13:21:28;102512.00;;;13.20
16956;BMP180;8594;52.052;8.354;2024-01-27T13:23:55;102507.00;;;13.10
16956;BMP180;8594;52.052;8.354;2024-01-27T13:26:22;102512.00;;;12.60
16956;BMP180;8594;52.052;8.354;2024-01-27T13:28:48;102522.00;;;13.70
16956;BMP180;8594;52.052;8.354;2024-01-27T13:31:17;102520.00;;;13.20
16956;BMP180;8594;52.052;8.354;2024-01-27T13:33:44;102514.00;;;13.30
16956;BMP180;8594;52.052;8.354;2024-01-27T13:36:11;102517.00;;;12.80
16956;BMP180;8594;52.052;8.354;2024-01-27T13:38:37;102515.00;;;13.20
16956;BMP180;8594;52.052;8.354;2024-01-27T13:41:04;102518.00;;;13.50
16956;BMP180;8594;52.052;8.354;2024-01-27T13:43:31;102521.00;;;13.70
16956;BMP180;8594;52.052;8.354;2024-01-27T13:45:58;102515.00;;;13.10
16956;BMP180;8594;52.052;8.354;2024-01-27T13:48:26;102522.00;;;13.50
16956;BMP180;8594;52.052;8.354;2024-01-27T13:50:53;102520.00;;;13.60
16956;BMP180;8594;52.052;8.354;2024-01-27T13:53:19;102516.00;;;13.50
16956;BMP180;8594;52.052;8.354;2024-01-27T13:55:46;102526.00;;;13.10
16956;BMP180;8594;52.052;8.354;2024-01-27T13:58:13;102522.00;;;13.20
16956;BMP180;8594;52.052;8.354;2024-01-27T14:00:40;102518.00;;;11.90
16956;BMP180;8594;52.052;8.354;2024-01-27T14:03:06;102512.00;;;13.10
16956;BMP180;8594;52.052;8.354;2024-01-27T14:05:35;102524.00;;;13.40
16956;BMP180;8594;52.052;8.354;2024-01-27T14:08:04;102521.00;;;13.20
16956;BMP180;8594;52.052;8.354;2024-01-27T14:10:32;102520.00;;;12.70
16956;BMP180;8594;52.052;8.354;2024-01-27T14:13:00;102525.00;;;12.80
16956;BMP180;8594;52.052;8.354;2024-01-27T14:15:30;102518.00;;;12.60
16956;BMP180;8594;52.052;8.354;2024-01-27T14:17:56;102526.00;;;12.90